createdAt,value
2022-12-18T00:01:57.885Z,51.95
2022-12-18T00:04:28.318Z,53.55
2022-12-18T00:06:56.206Z,59.00
2022-12-18T00:09:24.792Z,54.28
2022-12-18T00:11:52.682Z,50.40
2022-12-18T00:14:20.623Z,58.80
2022-12-18T00:16:48.915Z,54.20
2022-12-18T00:19:17.002Z,52.88
2022-12-18T00:21:44.992Z,56.63
2022-12-18T00:24:13.315Z,58.10
2022-12-18T00:26:41.430Z,54.05
2022-12-18T00:29:14.854Z,63.53
2022-12-18T00:31:44.929Z,55.28
2022-12-18T00:34:14.483Z,51.67
2022-12-18T00:36:42.962Z,60.65
2022-12-18T00:39:13.273Z,63.90
2022-12-18T00:41:59.871Z,57.92
2022-12-18T00:44:27.926Z,53.90
2022-12-18T00:46:55.787Z,57.20
2022-12-18T00:49:23.807Z,54.58
2022-12-18T00:51:51.590Z,54.60
2022-12-18T00:54:19.641Z,54.65
2022-12-18T00:56:49.599Z,53.40
2022-12-18T00:59:19.568Z,53.75
2022-12-18T01:01:48.265Z,57.13
2022-12-18T01:04:16.559Z,56.05
2022-12-18T01:06:46.820Z,54.92
2022-12-18T01:09:14.927Z,58.63
2022-12-18T01:11:42.609Z,50.47
2022-12-18T01:14:12.587Z,47.83
2022-12-18T01:16:40.500Z,44.30
2022-12-18T01:19:08.452Z,48.90
2022-12-18T01:21:36.256Z,45.30
2022-12-18T01:24:06.089Z,48.83
2022-12-18T01:26:34.915Z,45.35
2022-12-18T01:29:02.927Z,44.97
2022-12-18T01:31:33.511Z,38.55
2022-12-18T01:34:05.740Z,45.03
2022-12-18T01:36:38.500Z,42.83
2022-12-18T01:39:14.369Z,44.63
2022-12-18T01:42:02.329Z,46.80
2022-12-18T01:45:00.381Z,40.92
2022-12-18T01:47:51.087Z,42.65
2022-12-18T01:50:24.572Z,46.42
2022-12-18T01:53:16.916Z,38.72
2022-12-18T01:55:52.800Z,43.10
2022-12-18T01:58:28.722Z,36.88
2022-12-18T02:00:57.556Z,39.08
2022-12-18T02:03:25.338Z,43.20
2022-12-18T02:06:13.207Z,39.13
2022-12-18T02:08:49.477Z,36.55
2022-12-18T02:11:35.563Z,41.65
2022-12-18T02:14:12.850Z,36.72
2022-12-18T02:17:03.189Z,41.42
2022-12-18T02:19:58.310Z,42.75
2022-12-18T02:22:47.336Z,37.60
2022-12-18T02:25:27.209Z,41.13
2022-12-18T02:27:59.180Z,33.70
2022-12-18T02:30:32.029Z,37.50
2022-12-18T02:33:03.272Z,38.08
2022-12-18T02:35:32.710Z,41.78
2022-12-18T02:38:04.705Z,39.78
2022-12-18T02:40:37.115Z,40.40
2022-12-18T02:43:14.766Z,36.25
2022-12-18T02:45:58.049Z,39.35
2022-12-18T02:48:33.966Z,36.33
2022-12-18T02:51:12.835Z,41.17
2022-12-18T02:54:22.482Z,45.38
2022-12-18T02:56:57.430Z,42.22
2022-12-18T02:59:58.565Z,43.60
2022-12-18T03:02:55.801Z,42.35
2022-12-18T03:05:45.258Z,42.47
2022-12-18T03:08:31.136Z,43.25
2022-12-18T03:11:05.736Z,42.35
2022-12-18T03:13:58.749Z,46.42
2022-12-18T03:16:32.160Z,38.65
2022-12-18T03:19:05.084Z,39.95
2022-12-18T03:21:44.820Z,42.17
2022-12-18T03:24:13.111Z,43.38
2022-12-18T03:26:45.750Z,41.88
2022-12-18T03:29:32.203Z,35.33
2022-12-18T03:32:06.824Z,40.00
2022-12-18T03:34:37.562Z,34.00
2022-12-18T03:37:09.000Z,35.95
2022-12-18T03:39:39.427Z,33.20
2022-12-18T03:42:35.547Z,35.60
2022-12-18T03:45:21.112Z,36.25
2022-12-18T03:47:58.382Z,36.05
2022-12-18T03:50:45.014Z,35.95
2022-12-18T03:53:36.855Z,35.05
2022-12-18T03:56:07.228Z,35.08
2022-12-18T03:58:42.161Z,35.95
2022-12-18T04:01:28.187Z,34.38
2022-12-18T04:03:57.837Z,35.58
2022-12-18T04:06:26.238Z,36.15
2022-12-18T04:08:54.887Z,37.40
2022-12-18T04:11:26.122Z,34.08
2022-12-18T04:13:59.289Z,32.85
2022-12-18T04:16:30.244Z,31.45
2022-12-18T04:19:02.299Z,28.20
2022-12-18T04:21:35.088Z,27.95
2022-12-18T04:24:03.212Z,29.67
2022-12-18T04:26:31.500Z,31.98
2022-12-18T04:29:13.966Z,31.90
2022-12-18T04:31:41.620Z,31.38
2022-12-18T04:34:10.783Z,27.83
2022-12-18T04:36:45.321Z,31.40
2022-12-18T04:39:15.031Z,34.10
2022-12-18T04:41:42.993Z,27.95
2022-12-18T04:44:11.484Z,32.67
2022-12-18T04:46:39.308Z,32.03
2022-12-18T04:49:07.349Z,27.75
2022-12-18T04:51:35.104Z,28.92
2022-12-18T04:54:03.192Z,25.98
2022-12-18T04:56:33.007Z,32.90
2022-12-18T04:59:01.057Z,27.40
2022-12-18T05:01:34.278Z,31.40
2022-12-18T05:04:03.953Z,29.35
2022-12-18T05:06:31.839Z,29.92
2022-12-18T05:08:59.827Z,31.95
2022-12-18T05:11:27.513Z,33.55
2022-12-18T05:13:55.451Z,28.33
2022-12-18T05:16:23.243Z,29.75
2022-12-18T05:18:51.225Z,30.27
2022-12-18T05:21:19.004Z,29.77
2022-12-18T05:23:47.121Z,27.98
2022-12-18T05:26:18.750Z,29.65
2022-12-18T05:28:47.140Z,29.98
2022-12-18T05:31:15.618Z,33.33
2022-12-18T05:33:44.276Z,29.55
2022-12-18T05:36:12.847Z,28.35
2022-12-18T05:38:41.433Z,29.80
2022-12-18T05:41:09.912Z,30.33
2022-12-18T05:43:39.898Z,32.05
2022-12-18T05:46:12.178Z,27.73
2022-12-18T05:48:40.308Z,30.83
2022-12-18T05:51:13.803Z,37.50
2022-12-18T05:53:42.970Z,30.70
2022-12-18T05:56:15.622Z,36.05
2022-12-18T05:58:43.708Z,30.77
2022-12-18T06:01:18.101Z,27.45
2022-12-18T06:03:47.167Z,27.38
2022-12-18T06:06:24.729Z,28.70
2022-12-18T06:08:53.446Z,30.90
2022-12-18T06:11:23.557Z,29.30
2022-12-18T06:13:58.907Z,28.00
2022-12-18T06:16:28.636Z,28.80
2022-12-18T06:19:04.776Z,30.63
2022-12-18T06:21:32.984Z,31.05
2022-12-18T06:24:02.045Z,30.23
2022-12-18T06:26:29.781Z,29.48
2022-12-18T06:28:57.994Z,34.42
2022-12-18T06:31:27.237Z,26.80
2022-12-18T06:33:55.346Z,27.48
2022-12-18T06:36:23.240Z,28.30
2022-12-18T06:38:51.290Z,28.95
2022-12-18T06:41:21.437Z,27.55
2022-12-18T06:43:49.844Z,27.30
2022-12-18T06:46:18.159Z,29.83
2022-12-18T06:48:50.103Z,27.67
2022-12-18T06:51:23.067Z,29.77
2022-12-18T06:53:51.063Z,30.70
2022-12-18T06:56:18.823Z,25.30
2022-12-18T06:58:46.975Z,29.98
2022-12-18T07:01:15.412Z,31.80
2022-12-18T07:03:44.176Z,30.30
2022-12-18T07:06:18.893Z,30.75
2022-12-18T07:08:48.071Z,31.88
2022-12-18T07:11:16.770Z,29.92
2022-12-18T07:13:46.183Z,31.40
2022-12-18T07:16:23.917Z,31.73
2022-12-18T07:18:55.016Z,35.05
2022-12-18T07:21:24.663Z,32.42
2022-12-18T07:23:52.807Z,37.85
2022-12-18T07:26:21.670Z,37.00
2022-12-18T07:28:50.316Z,37.25
2022-12-18T07:31:23.219Z,39.85
2022-12-18T07:33:52.474Z,41.35
2022-12-18T07:36:23.856Z,39.58
2022-12-18T07:38:53.513Z,45.58
2022-12-18T07:41:21.571Z,42.65
2022-12-18T07:43:50.058Z,45.38
2022-12-18T07:46:18.665Z,43.70
2022-12-18T07:48:49.918Z,42.88
2022-12-18T07:51:19.326Z,43.20
2022-12-18T07:53:48.813Z,48.25
2022-12-18T07:56:30.320Z,35.83
2022-12-18T07:59:00.304Z,47.95
2022-12-18T08:01:28.679Z,43.58
2022-12-18T08:03:58.187Z,48.67
2022-12-18T08:06:26.127Z,46.08
2022-12-18T08:08:55.880Z,48.47
2022-12-18T08:11:26.440Z,58.63
2022-12-18T08:13:54.824Z,51.33
2022-12-18T08:16:23.458Z,52.22
2022-12-18T08:18:54.190Z,47.35
2022-12-18T08:21:27.764Z,44.97
2022-12-18T08:23:58.552Z,50.33
2022-12-18T08:26:29.428Z,47.65
2022-12-18T08:28:58.977Z,52.97
2022-12-18T08:31:29.281Z,53.67
2022-12-18T08:33:57.849Z,57.08
2022-12-18T08:36:26.455Z,49.28
2022-12-18T08:38:55.576Z,51.08
2022-12-18T08:41:23.338Z,46.22
2022-12-18T08:44:10.292Z,53.20
2022-12-18T08:46:40.994Z,58.85
2022-12-18T08:49:10.495Z,55.75
2022-12-18T08:51:38.717Z,52.38
2022-12-18T08:54:07.176Z,53.60
2022-12-18T08:56:35.413Z,65.28
2022-12-18T08:59:03.727Z,68.70
2022-12-18T09:01:32.106Z,62.67
2022-12-18T09:04:00.365Z,67.65
2022-12-18T09:06:28.228Z,71.22
2022-12-18T09:08:56.176Z,64.55
2022-12-18T09:11:26.755Z,72.07
2022-12-18T09:13:56.973Z,72.65
2022-12-18T09:16:31.754Z,70.32
2022-12-18T09:19:01.764Z,68.78
2022-12-18T09:21:37.417Z,77.70
2022-12-18T09:24:07.315Z,75.07
2022-12-18T09:26:37.619Z,79.95
2022-12-18T09:29:08.084Z,74.13
2022-12-18T09:31:36.585Z,76.70
2022-12-18T09:34:04.548Z,78.03
2022-12-18T09:36:32.312Z,71.43
2022-12-18T09:39:03.728Z,74.07
2022-12-18T09:41:48.405Z,69.70
2022-12-18T09:44:27.380Z,59.85
2022-12-18T09:47:18.525Z,69.28
2022-12-18T09:49:49.717Z,74.25
2022-12-18T09:52:34.592Z,76.38
2022-12-18T09:55:23.866Z,75.72
2022-12-18T09:58:08.539Z,72.25
2022-12-18T10:00:37.217Z,73.38
2022-12-18T10:03:14.124Z,69.10
2022-12-18T10:06:02.535Z,74.97
2022-12-18T10:08:54.848Z,69.43
2022-12-18T10:11:36.064Z,68.47
2022-12-18T10:14:35.030Z,59.22
2022-12-18T10:17:30.464Z,70.60
2022-12-18T10:20:16.702Z,65.70
2022-12-18T10:23:09.535Z,62.75
2022-12-18T10:25:53.392Z,69.43
2022-12-18T10:28:23.369Z,66.68
2022-12-18T10:30:51.312Z,72.85
2022-12-18T10:33:22.957Z,61.80
2022-12-18T10:35:53.701Z,62.55
2022-12-18T10:38:28.191Z,64.05
2022-12-18T10:41:22.031Z,58.35
2022-12-18T10:44:09.973Z,57.78
2022-12-18T10:46:38.086Z,58.58
2022-12-18T10:49:06.186Z,57.25
2022-12-18T10:51:38.735Z,57.20
2022-12-18T10:54:26.812Z,60.70
2022-12-18T10:57:14.749Z,58.33
2022-12-18T11:00:21.755Z,56.08
2022-12-18T11:02:49.682Z,57.30
2022-12-18T11:05:34.258Z,61.08
2022-12-18T11:10:41.899Z,56.45
2022-12-18T11:13:22.532Z,66.85
2022-12-18T11:15:51.572Z,60.22
2022-12-18T11:18:31.714Z,61.13
2022-12-18T11:21:10.342Z,58.92
2022-12-18T11:23:47.388Z,74.07
2022-12-18T11:26:15.636Z,65.72
2022-12-18T11:29:08.629Z,67.25
2022-12-18T11:31:36.773Z,58.75
2022-12-18T11:34:34.347Z,66.55
2022-12-18T11:37:05.411Z,71.03
2022-12-18T11:39:33.151Z,66.05
2022-12-18T11:42:12.920Z,67.03
2022-12-18T11:44:47.381Z,69.82
2022-12-18T11:47:37.161Z,62.80
2022-12-18T11:50:17.172Z,65.60
2022-12-18T11:52:45.500Z,69.78
2022-12-18T11:55:15.732Z,71.18
2022-12-18T11:58:31.112Z,62.72
2022-12-18T12:01:44.069Z,65.88
2022-12-18T12:04:31.017Z,68.88
2022-12-18T12:07:31.707Z,65.25
2022-12-18T12:10:18.561Z,66.57
2022-12-18T12:13:16.228Z,65.13
2022-12-18T12:15:56.006Z,63.70
2022-12-18T12:18:37.111Z,64.30
2022-12-18T12:21:17.835Z,63.92
2022-12-18T12:24:10.279Z,63.97
2022-12-18T12:26:57.357Z,70.47
2022-12-18T12:29:27.810Z,70.25
2022-12-18T12:32:23.151Z,68.35
2022-12-18T12:35:09.596Z,68.93
2022-12-18T12:38:00.954Z,78.72
2022-12-18T12:43:47.944Z,63.97
2022-12-18T12:46:22.777Z,69.43
2022-12-18T12:48:58.694Z,72.57
2022-12-18T12:51:45.718Z,72.55
2022-12-18T12:54:22.378Z,78.50
2022-12-18T12:56:59.335Z,84.22
2022-12-18T12:59:39.688Z,77.47
2022-12-18T13:02:45.717Z,72.25
2022-12-18T13:05:26.258Z,78.15
2022-12-18T13:08:09.994Z,77.03
2022-12-18T13:10:40.719Z,78.13
2022-12-18T13:13:23.661Z,76.88
2022-12-18T13:18:36.712Z,76.72
2022-12-18T13:21:42.509Z,70.72
2022-12-18T13:24:28.609Z,73.40
2022-12-18T13:26:57.473Z,70.10
2022-12-18T13:29:46.514Z,75.47
2022-12-18T13:32:28.809Z,76.43
2022-12-18T13:35:18.911Z,72.75
2022-12-18T13:37:55.755Z,74.68
2022-12-18T13:40:48.009Z,80.90
2022-12-18T13:43:24.656Z,75.32
2022-12-18T13:46:06.460Z,79.60
2022-12-18T13:48:39.055Z,77.90
2022-12-18T13:51:12.129Z,86.60
2022-12-18T13:53:47.663Z,73.33
2022-12-18T13:56:29.354Z,71.53
2022-12-18T13:59:17.597Z,75.72
2022-12-18T14:01:55.329Z,72.03
2022-12-18T14:04:31.255Z,74.65
2022-12-18T14:07:17.846Z,80.30
2022-12-18T14:10:26.048Z,69.32
2022-12-18T14:13:00.702Z,75.95
2022-12-18T14:15:36.253Z,77.10
2022-12-18T14:18:26.643Z,73.82
2022-12-18T14:20:58.762Z,80.90
2022-12-18T14:23:34.766Z,67.47
2022-12-18T14:26:19.995Z,75.75
2022-12-18T14:28:47.718Z,77.38
2022-12-18T14:31:24.015Z,72.97
2022-12-18T14:33:52.733Z,79.18
2022-12-18T14:36:24.290Z,79.55
2022-12-18T14:39:00.315Z,76.25
2022-12-18T14:41:29.791Z,75.05
2022-12-18T14:44:08.232Z,75.72
2022-12-18T14:46:37.321Z,73.05
2022-12-18T14:49:33.848Z,68.40
2022-12-18T14:52:04.682Z,76.57
2022-12-18T14:54:33.481Z,69.13
2022-12-18T14:57:20.184Z,70.72
2022-12-18T14:59:47.907Z,71.22
2022-12-18T15:02:29.006Z,73.18
2022-12-18T15:05:21.636Z,76.32
2022-12-18T15:07:53.565Z,73.47
2022-12-18T15:10:31.606Z,69.00
2022-12-18T15:13:03.593Z,69.60
2022-12-18T15:15:37.118Z,70.07
2022-12-18T15:18:07.982Z,67.75
2022-12-18T15:20:42.095Z,70.65
2022-12-18T15:23:36.255Z,68.38
2022-12-18T15:26:10.045Z,73.53
2022-12-18T15:28:56.498Z,73.60
2022-12-18T15:31:29.072Z,64.05
2022-12-18T15:33:57.062Z,69.93
2022-12-18T15:36:26.811Z,74.88
2022-12-18T15:39:04.917Z,76.45
2022-12-18T15:41:36.597Z,64.43
2022-12-18T15:44:28.255Z,58.85
2022-12-18T15:46:55.935Z,66.53
2022-12-18T15:49:23.895Z,65.00
2022-12-18T15:51:59.060Z,64.88
2022-12-18T15:54:50.436Z,65.85
2022-12-18T15:57:24.236Z,66.00
2022-12-18T15:59:54.574Z,66.35
2022-12-18T16:02:24.021Z,63.63
2022-12-18T16:04:53.323Z,70.15
2022-12-18T16:07:24.593Z,66.45
2022-12-18T16:09:54.171Z,66.53
2022-12-18T16:12:25.511Z,70.40
2022-12-18T16:14:53.478Z,68.20
2022-12-18T16:17:21.270Z,70.75
2022-12-18T16:19:49.429Z,70.95
2022-12-18T16:22:28.899Z,70.10
2022-12-18T16:24:58.001Z,74.03
2022-12-18T16:27:26.439Z,72.75
2022-12-18T16:29:54.530Z,70.93
2022-12-18T16:32:24.520Z,74.53
2022-12-18T16:34:52.840Z,65.80
2022-12-18T16:37:20.599Z,67.75
2022-12-18T16:39:48.589Z,60.53
2022-12-18T16:42:20.830Z,69.30
2022-12-18T16:44:50.405Z,64.10
2022-12-18T16:47:18.832Z,64.45
2022-12-18T16:49:47.271Z,67.40
2022-12-18T16:52:15.167Z,63.42
2022-12-18T16:54:43.171Z,63.15
2022-12-18T16:57:15.890Z,67.18
2022-12-18T16:59:44.215Z,63.65
2022-12-18T17:02:22.812Z,59.55
2022-12-18T17:04:55.399Z,60.65
2022-12-18T17:07:23.932Z,61.03
2022-12-18T17:09:54.024Z,61.78
2022-12-18T17:12:21.950Z,65.13
2022-12-18T17:14:49.905Z,65.38
2022-12-18T17:17:21.382Z,60.72
2022-12-18T17:19:51.055Z,66.18
2022-12-18T17:22:19.525Z,70.32
2022-12-18T17:24:48.130Z,72.47
2022-12-18T17:27:16.228Z,72.10
2022-12-18T17:29:47.724Z,65.00
2022-12-18T17:32:17.882Z,69.03
2022-12-18T17:34:46.578Z,62.92
2022-12-18T17:37:15.540Z,70.60
2022-12-18T17:39:43.754Z,69.97
2022-12-18T17:42:15.171Z,61.58
2022-12-18T17:44:44.875Z,70.63
2022-12-18T17:47:14.007Z,63.90
2022-12-18T17:49:42.088Z,62.45
2022-12-18T17:52:10.280Z,69.30
2022-12-18T17:54:41.492Z,66.15
2022-12-18T17:57:10.370Z,64.22
2022-12-18T17:59:38.461Z,61.50
2022-12-18T18:02:06.362Z,66.75
2022-12-18T18:04:34.634Z,66.03
2022-12-18T18:07:03.112Z,61.83
2022-12-18T18:09:31.216Z,57.67
2022-12-18T18:12:17.726Z,68.25
2022-12-18T18:14:45.954Z,64.15
2022-12-18T18:17:13.836Z,65.90
2022-12-18T18:19:42.211Z,61.20
2022-12-18T18:22:11.888Z,64.45
2022-12-18T18:24:39.948Z,67.70
2022-12-18T18:27:07.736Z,57.35
2022-12-18T18:29:36.524Z,50.55
2022-12-18T18:32:04.813Z,63.78
2022-12-18T18:34:33.573Z,73.38
2022-12-18T18:37:01.863Z,63.25
2022-12-18T18:39:30.484Z,68.50
2022-12-18T18:41:58.148Z,63.95
2022-12-18T18:44:26.550Z,67.10
2022-12-18T18:46:56.271Z,66.10
2022-12-18T18:49:27.540Z,66.85
2022-12-18T18:51:57.562Z,61.40
2022-12-18T18:54:26.504Z,62.72
2022-12-18T18:59:43.408Z,68.95
2022-12-18T19:02:15.190Z,62.53
2022-12-18T19:04:45.880Z,52.28
2022-12-18T19:07:24.875Z,56.50
2022-12-18T19:10:03.557Z,64.15
2022-12-18T19:12:52.706Z,61.00
2022-12-18T19:15:23.417Z,55.33
2022-12-18T19:17:51.319Z,62.95
2022-12-18T19:20:20.214Z,57.22
2022-12-18T19:22:55.237Z,64.05
2022-12-18T19:25:38.511Z,63.95
2022-12-18T19:28:13.524Z,60.25
2022-12-18T19:30:50.247Z,60.90
2022-12-18T19:33:41.786Z,61.13
2022-12-18T19:36:18.555Z,65.20
2022-12-18T19:38:46.931Z,53.75
2022-12-18T19:41:16.797Z,57.78
2022-12-18T19:43:46.886Z,58.58
2022-12-18T19:46:17.221Z,56.40
2022-12-18T19:48:45.690Z,56.58
2022-12-18T19:51:26.277Z,59.38
2022-12-18T19:53:58.757Z,57.85
2022-12-18T19:56:31.490Z,55.60
2022-12-18T19:58:59.796Z,52.85
2022-12-18T20:01:29.638Z,54.28
2022-12-18T20:03:59.073Z,53.08
2022-12-18T20:06:30.167Z,52.60
2022-12-18T20:09:01.302Z,55.10
2022-12-18T20:11:36.375Z,51.45
2022-12-18T20:14:10.532Z,56.10
2022-12-18T20:16:38.760Z,59.00
2022-12-18T20:19:07.033Z,47.95
2022-12-18T20:21:35.107Z,55.67
2022-12-18T20:24:03.092Z,53.22
2022-12-18T20:26:31.390Z,61.08
2022-12-18T20:28:59.632Z,57.03
2022-12-18T20:31:27.618Z,62.63
2022-12-18T20:34:00.296Z,49.40
2022-12-18T20:36:30.653Z,50.40
2022-12-18T20:39:01.805Z,53.20
2022-12-18T20:41:37.430Z,50.20
2022-12-18T20:44:22.800Z,43.35
2022-12-18T20:46:56.928Z,43.80
2022-12-18T20:49:26.341Z,46.15
2022-12-18T20:51:56.481Z,44.53
2022-12-18T20:54:26.821Z,45.45
2022-12-18T20:56:55.397Z,45.03
2022-12-18T20:59:25.231Z,46.83
2022-12-18T21:01:53.979Z,51.10
2022-12-18T21:04:22.822Z,47.20
2022-12-18T21:07:00.465Z,49.38
2022-12-18T21:09:37.255Z,46.80
2022-12-18T21:12:29.531Z,44.80
2022-12-18T21:15:03.761Z,49.88
2022-12-18T21:17:34.718Z,50.45
2022-12-18T21:20:15.698Z,41.88
2022-12-18T21:22:46.909Z,48.58
2022-12-18T21:25:14.623Z,45.83
2022-12-18T21:27:42.590Z,38.80
2022-12-18T21:30:10.639Z,42.42
2022-12-18T21:32:38.746Z,44.50
2022-12-18T21:35:06.813Z,41.72
2022-12-18T21:37:34.746Z,43.55
2022-12-18T21:40:03.750Z,40.90
2022-12-18T21:42:50.518Z,41.97
2022-12-18T21:45:18.184Z,46.35
2022-12-18T21:47:46.217Z,36.58
2022-12-18T21:50:14.343Z,39.30
2022-12-18T21:52:42.518Z,37.70
2022-12-18T21:55:10.547Z,36.00
2022-12-18T21:57:39.704Z,40.03
2022-12-18T22:00:19.035Z,43.58
2022-12-18T22:02:52.115Z,40.65
2022-12-18T22:05:37.195Z,46.50
2022-12-18T22:08:06.843Z,37.95
2022-12-18T22:10:35.089Z,38.97
2022-12-18T22:13:03.930Z,37.25
2022-12-18T22:15:31.739Z,37.80
2022-12-18T22:18:00.537Z,42.92
2022-12-18T22:20:29.830Z,43.90
2022-12-18T22:22:59.006Z,38.80
2022-12-18T22:25:30.365Z,42.85
2022-12-18T22:28:17.136Z,35.80
2022-12-18T22:30:46.089Z,38.88
2022-12-18T22:33:14.175Z,41.47
2022-12-18T22:35:42.093Z,39.08
2022-12-18T22:38:10.471Z,40.50
2022-12-18T22:40:38.183Z,35.13
2022-12-18T22:43:06.332Z,34.05
2022-12-18T22:45:34.142Z,38.92
2022-12-18T22:48:06.679Z,40.20
2022-12-18T22:50:34.473Z,38.50
2022-12-18T22:53:02.415Z,34.83
2022-12-18T22:55:30.163Z,39.00
2022-12-18T22:57:58.122Z,38.25
2022-12-18T23:00:26.126Z,37.95
2022-12-18T23:02:59.785Z,38.53
2022-12-18T23:05:30.147Z,40.50
2022-12-18T23:07:59.205Z,43.97
2022-12-18T23:10:27.465Z,38.28
2022-12-18T23:12:55.848Z,33.83
2022-12-18T23:15:27.702Z,34.50
2022-12-18T23:17:58.265Z,37.83
2022-12-18T23:20:27.488Z,35.60
2022-12-18T23:22:55.517Z,36.70
2022-12-18T23:25:23.436Z,36.92
2022-12-18T23:27:51.613Z,36.17
2022-12-18T23:30:19.458Z,33.45
2022-12-18T23:32:47.478Z,33.45
2022-12-18T23:35:16.123Z,32.47
2022-12-18T23:38:01.857Z,34.95
2022-12-18T23:40:30.498Z,28.10
2022-12-18T23:43:00.325Z,27.38
2022-12-18T23:45:28.117Z,24.58
2022-12-18T23:47:56.367Z,28.55
2022-12-18T23:50:28.795Z,32.42
2022-12-18T23:53:03.722Z,29.63
2022-12-18T23:55:33.757Z,27.50
2022-12-18T23:58:01.745Z,27.30
